Eden, Pennsylvania
Current Conditions -  °F | °C
As of 9:53 AM on Saturday 01 Nov 2014 (Local Time) from KLNS Reporting Station
Overcast Overcast  
Wind Chill: 40°   Ceiling: 3400
Heat Index: 47°   Visibility: 10mi
Dew Point: 38°   Wind: 16mph
Humidity: 71%   Direction: 50°NE
Pressure: 29.86"   Gusts: NA
Location:  40.0734°N, 76.3168°W
Report Text: KLNS 011353Z 05014KT 10SM BKN034 OVC044 08/03 A2986 RMK AO2 SLP114 T00830033
Loading
Personal Weather Stations






























Interactive Weather Map
Tropical Storm Tracking
New forecast layout! Learn more

10-Day Weather Forecast

Advertisements
Track Severe Weather on mobile